Star Navarra — V7ZD8 — position and weather

sailwx.info

Track history (hours):
 
Tides and Currents Weather Stations Pressure Air Temp Water Temp Dewpoint Dewpoint Depression Visibility Wind Speed Wind Dir Waves Ship Positions

Star Navarra

Last reported at 2017-Nov-16 11:04 UTC. Time now 2017-Nov-17 23:20 UTC.
Position S 23°56' W 046°19'.

Length 199 m; draft 9.2 m.

Type: Cargo ship. MMSI: 538007656.

Date/timePositionNaut miles runAvg speedWind from/ knotsBaromVisibWave heightAir tempDewpointWater temp
2017-Nov-16 11:04S 23°56' W 046°19'0 0.8
2017-Nov-16 10:51S 23°56' W 046°19'2 5.1
2017-Nov-16 10:30S 23°58' W 046°18'3 5.7
2017-Nov-16 10:00S 23°60' W 046°20'4 7.9
2017-Nov-16 09:30S 24°04' W 046°22'4 8.6
2017-Nov-16 09:00S 24°08' W 046°22'2 4.5
2017-Nov-16 08:30S 24°10' W 046°21'1 1.4
2017-Nov-16 08:00S 24°09' W 046°21'1 1.8
2017-Nov-16 07:30S 24°10' W 046°20'4 7.2
2017-Nov-16 07:00S 24°13' W 046°21'5 9.6
2017-Nov-16 06:30S 24°18' W 046°18'612.4
2017-Nov-16 06:00S 24°22' W 046°14'612.5
2017-Nov-16 05:30S 24°22' W 046°07'612.9
2017-Nov-16 05:00S 24°21' W 046°00'  
Track history (hours):
 
Tides and Currents Weather Stations Pressure Air Temp Water Temp Dewpoint Dewpoint Depression Visibility Wind Speed Wind Dir Waves Ship Positions

Star Navarra

Last reported at 2017-Nov-16 11:04 UTC. Time now 2017-Nov-17 23:20 UTC.
Position S 23°56' W 046°19'.

Length 199 m; draft 9.2 m.

Type: Cargo ship. MMSI: 538007656.

Date/timePositionNaut miles runAvg speedWind from/ knotsBaromVisibWave heightAir tempDewpointWater temp
2017-Nov-16 11:04S 23°56' W 046°19'0 0.8
2017-Nov-16 10:51S 23°56' W 046°19'2 5.1
2017-Nov-16 10:30S 23°58' W 046°18'3 5.7
2017-Nov-16 10:00S 23°60' W 046°20'4 7.9
2017-Nov-16 09:30S 24°04' W 046°22'4 8.6
2017-Nov-16 09:00S 24°08' W 046°22'2 4.5
2017-Nov-16 08:30S 24°10' W 046°21'1 1.4
2017-Nov-16 08:00S 24°09' W 046°21'1 1.8
2017-Nov-16 07:30S 24°10' W 046°20'4 7.2
2017-Nov-16 07:00S 24°13' W 046°21'5 9.6
2017-Nov-16 06:30S 24°18' W 046°18'612.4
2017-Nov-16 06:00S 24°22' W 046°14'612.5
2017-Nov-16 05:30S 24°22' W 046°07'612.9
2017-Nov-16 05:00S 24°21' W 046°00'  

Dump ship's entire track history